createdAt,value
2023-10-09T00:02:11.384Z,16.23
2023-10-09T00:04:43.377Z,16.14
2023-10-09T00:07:12.530Z,16.18
2023-10-09T00:09:49.728Z,16.22
2023-10-09T00:12:25.290Z,16.09
2023-10-09T00:14:57.524Z,15.88
2023-10-09T00:17:25.246Z,15.84
2023-10-09T00:19:53.249Z,15.68
2023-10-09T00:22:27.579Z,15.61
2023-10-09T00:25:13.436Z,15.61
2023-10-09T00:27:44.611Z,15.56
2023-10-09T00:30:19.315Z,15.46
2023-10-09T00:33:07.898Z,15.51
2023-10-09T00:35:41.106Z,15.32
2023-10-09T00:38:25.624Z,15.24
2023-10-09T00:41:11.952Z,15.15
2023-10-09T00:43:40.084Z,15.25
2023-10-09T00:46:18.030Z,15.34
2023-10-09T00:48:45.997Z,15.09
2023-10-09T00:51:20.134Z,15.01
2023-10-09T00:53:54.020Z,14.97
2023-10-09T00:56:28.682Z,15.07
2023-10-09T00:59:21.343Z,15.15
2023-10-09T01:01:58.427Z,15.06
2023-10-09T01:04:27.688Z,15.16
2023-10-09T01:07:16.885Z,15.17
2023-10-09T01:09:46.058Z,15.06
2023-10-09T01:12:19.747Z,15.18
2023-10-09T01:14:54.120Z,15.19
2023-10-09T01:17:31.013Z,15.18
2023-10-09T01:19:59.576Z,15.18
2023-10-09T01:22:26.478Z,15.08
2023-10-09T01:24:56.959Z,15.05
2023-10-09T01:27:27.201Z,15.03
2023-10-09T01:29:54.275Z,15.05
2023-10-09T01:32:21.667Z,14.99
2023-10-09T01:34:52.251Z,15.08
2023-10-09T01:37:31.891Z,15.04
2023-10-09T01:40:20.488Z,14.91
2023-10-09T01:42:47.347Z,14.89
2023-10-09T01:45:20.556Z,14.82
2023-10-09T01:47:53.472Z,14.96
2023-10-09T01:50:26.106Z,14.86
2023-10-09T01:52:53.495Z,14.91
2023-10-09T01:55:41.713Z,14.82
2023-10-09T01:58:25.776Z,14.86
2023-10-09T02:00:57.211Z,14.79
2023-10-09T02:03:25.949Z,14.80
2023-10-09T02:06:01.366Z,14.78
2023-10-09T02:08:28.648Z,14.76
2023-10-09T02:10:58.592Z,14.77
2023-10-09T02:13:32.943Z,14.72
2023-10-09T02:16:29.908Z,14.71
2023-10-09T02:19:09.321Z,14.68
2023-10-09T02:21:41.864Z,14.81
2023-10-09T02:24:14.414Z,14.76
2023-10-09T02:26:41.496Z,14.83
2023-10-09T02:29:11.350Z,14.82
2023-10-09T02:31:42.360Z,14.75
2023-10-09T02:34:09.567Z,14.76
2023-10-09T02:36:39.823Z,14.75
2023-10-09T02:39:07.726Z,14.66
2023-10-09T02:41:35.960Z,14.76
2023-10-09T02:44:12.811Z,14.83
2023-10-09T02:46:41.590Z,14.84
2023-10-09T02:49:10.852Z,14.84
2023-10-09T02:51:54.173Z,14.71
2023-10-09T02:54:23.716Z,14.72
2023-10-09T02:57:08.674Z,14.67
2023-10-09T02:59:39.934Z,14.58
2023-10-09T03:02:07.192Z,14.45
2023-10-09T03:04:34.988Z,14.40
2023-10-09T03:07:02.608Z,14.30
2023-10-09T03:09:29.953Z,14.14
2023-10-09T03:12:05.235Z,14.10
2023-10-09T03:14:36.470Z,14.12
2023-10-09T03:17:04.168Z,14.15
2023-10-09T03:19:38.957Z,14.24
2023-10-09T03:22:12.205Z,14.20
2023-10-09T03:24:51.646Z,14.15
2023-10-09T03:27:19.783Z,14.22
2023-10-09T03:29:55.417Z,14.32
2023-10-09T03:32:22.601Z,14.26
2023-10-09T03:34:53.056Z,14.16
2023-10-09T03:37:36.152Z,14.15
2023-10-09T03:40:07.439Z,14.14
2023-10-09T03:42:37.734Z,14.05
2023-10-09T03:45:14.115Z,13.92
2023-10-09T03:47:44.577Z,13.76
2023-10-09T03:50:28.391Z,13.79
2023-10-09T03:52:56.688Z,13.77
2023-10-09T03:55:29.170Z,13.63
2023-10-09T03:57:58.837Z,13.56
2023-10-09T04:15:02.666Z,13.66
2023-10-09T04:17:36.351Z,13.29
2023-10-09T04:20:20.883Z,13.10
2023-10-09T04:23:07.142Z,13.09
2023-10-09T04:25:43.549Z,12.93
2023-10-09T04:28:21.010Z,12.77
2023-10-09T04:30:55.304Z,12.68
2023-10-09T04:33:49.964Z,12.72
2023-10-09T04:36:19.723Z,12.60
2023-10-09T04:39:05.683Z,12.61
2023-10-09T04:41:53.644Z,12.55
2023-10-09T04:44:24.352Z,12.39
2023-10-09T04:47:25.432Z,12.38
2023-10-09T04:49:58.178Z,12.47
2023-10-09T04:52:31.730Z,12.44
2023-10-09T04:55:12.089Z,12.73
2023-10-09T04:58:02.169Z,12.87
2023-10-09T05:00:29.926Z,12.83
2023-10-09T05:03:28.547Z,12.85
2023-10-09T05:06:07.131Z,13.10
2023-10-09T05:08:34.259Z,13.28
2023-10-09T05:11:03.658Z,13.54
2023-10-09T05:13:43.181Z,13.50
2023-10-09T05:16:21.088Z,14.16
2023-10-09T05:18:58.593Z,14.45
2023-10-09T05:21:33.193Z,14.83
2023-10-09T05:24:20.590Z,14.66
2023-10-09T05:26:48.928Z,14.37
2023-10-09T05:29:34.998Z,14.98
2023-10-09T05:32:15.556Z,15.44
2023-10-09T05:35:00.791Z,15.61
2023-10-09T05:37:36.315Z,16.12
2023-10-09T05:40:19.333Z,15.79
2023-10-09T05:42:59.126Z,15.93
2023-10-09T05:45:45.485Z,15.94
2023-10-09T05:48:15.520Z,15.95
2023-10-09T05:50:57.647Z,16.25
2023-10-09T05:53:36.631Z,16.04
2023-10-09T05:56:22.189Z,17.27
2023-10-09T05:59:15.529Z,18.06
2023-10-09T06:01:51.942Z,16.79
2023-10-09T06:04:21.254Z,17.44
2023-10-09T06:06:57.993Z,17.66
2023-10-09T06:09:45.280Z,17.93
2023-10-09T06:12:30.948Z,18.97
2023-10-09T06:15:20.294Z,19.64
2023-10-09T06:17:53.880Z,19.96
2023-10-09T06:20:39.552Z,20.89
2023-10-09T06:23:29.193Z,21.09
2023-10-09T06:26:06.921Z,22.36
2023-10-09T06:28:36.710Z,22.20
2023-10-09T06:31:23.612Z,23.33
2023-10-09T06:34:13.431Z,21.79
2023-10-09T06:36:54.450Z,22.65
2023-10-09T06:39:40.335Z,22.71
2023-10-09T06:42:17.724Z,23.17
2023-10-09T06:44:53.864Z,22.64
2023-10-09T06:47:25.425Z,23.02
2023-10-09T06:50:11.075Z,23.04
2023-10-09T06:52:56.585Z,22.71
2023-10-09T06:55:34.152Z,22.65
2023-10-09T06:58:11.443Z,23.05
2023-10-09T07:01:13.505Z,23.28
2023-10-09T07:03:53.659Z,23.28
2023-10-09T07:06:26.160Z,22.95
2023-10-09T07:09:06.503Z,22.70
2023-10-09T07:11:43.890Z,22.60
2023-10-09T07:14:53.857Z,23.09
2023-10-09T07:17:23.773Z,22.95
2023-10-09T07:19:51.977Z,21.78
2023-10-09T07:22:22.194Z,22.12
2023-10-09T07:24:59.315Z,22.31
2023-10-09T07:27:45.666Z,22.61
2023-10-09T07:30:47.165Z,22.77
2023-10-09T07:33:14.665Z,22.99
2023-10-09T07:35:58.945Z,22.80
2023-10-09T07:38:36.759Z,23.39
2023-10-09T07:41:07.234Z,24.09
2023-10-09T07:43:58.748Z,23.66
2023-10-09T07:46:31.875Z,23.06
2023-10-09T07:49:13.763Z,23.56
2023-10-09T07:51:45.488Z,23.47
2023-10-09T07:54:16.304Z,23.58
2023-10-09T07:56:47.753Z,23.36
2023-10-09T07:59:19.540Z,23.16
2023-10-09T08:07:04.286Z,23.74
2023-10-09T08:09:48.520Z,23.18
2023-10-09T08:12:37.448Z,23.63
2023-10-09T08:15:20.698Z,23.54
2023-10-09T08:18:14.346Z,23.51
2023-10-09T08:20:59.378Z,23.27
2023-10-09T08:23:49.604Z,24.01
2023-10-09T08:26:30.504Z,23.98
2023-10-09T08:29:16.602Z,23.66
2023-10-09T08:31:47.157Z,23.81
2023-10-09T08:36:57.645Z,24.61
2023-10-09T08:39:28.243Z,24.38
2023-10-09T08:41:59.462Z,24.03
2023-10-09T08:44:30.675Z,23.95
2023-10-09T08:46:58.664Z,23.82
2023-10-09T08:49:27.785Z,24.22
2023-10-09T08:51:54.961Z,23.94
2023-10-09T08:54:22.189Z,24.05
2023-10-09T08:56:52.387Z,24.29
2023-10-09T08:59:20.827Z,24.45
2023-10-09T09:01:53.506Z,24.61
2023-10-09T09:04:53.677Z,24.41
2023-10-09T09:07:30.501Z,24.47
2023-10-09T09:10:19.077Z,24.96
2023-10-09T09:12:46.625Z,25.51
2023-10-09T09:15:22.180Z,25.02
2023-10-09T09:17:52.784Z,25.15
2023-10-09T09:20:35.958Z,25.59
2023-10-09T09:23:05.922Z,24.83
2023-10-09T09:25:49.609Z,24.20
2023-10-09T09:28:22.973Z,24.91
2023-10-09T09:30:52.598Z,25.51
2023-10-09T09:33:46.106Z,25.05
2023-10-09T09:36:13.174Z,24.37
2023-10-09T09:38:49.659Z,24.63
2023-10-09T09:41:26.429Z,24.32
2023-10-09T09:43:58.778Z,24.83
2023-10-09T09:46:35.661Z,24.57
2023-10-09T09:49:05.054Z,24.75
2023-10-09T09:51:35.831Z,24.43
2023-10-09T09:54:03.917Z,24.64
2023-10-09T09:56:32.167Z,24.86
2023-10-09T09:59:05.716Z,25.43
2023-10-09T10:01:37.921Z,25.10
2023-10-09T10:04:16.869Z,25.22
2023-10-09T10:06:46.538Z,26.01
2023-10-09T10:09:43.065Z,25.45
2023-10-09T10:12:11.243Z,25.27
2023-10-09T10:15:01.009Z,25.18
2023-10-09T10:17:31.745Z,24.91
2023-10-09T10:20:02.081Z,24.77
2023-10-09T10:22:31.890Z,24.64
2023-10-09T10:24:59.868Z,23.86
2023-10-09T10:27:27.960Z,23.64
2023-10-09T10:30:14.369Z,24.36
2023-10-09T10:33:10.829Z,24.81
2023-10-09T10:35:46.461Z,24.22
2023-10-09T10:38:36.566Z,23.03
2023-10-09T10:41:20.682Z,22.87
2023-10-09T10:43:54.430Z,23.38
2023-10-09T10:46:39.099Z,23.73
2023-10-09T10:49:33.967Z,23.34
2023-10-09T10:52:16.461Z,23.16
2023-10-09T10:54:43.352Z,23.59
2023-10-09T10:57:38.821Z,23.89
2023-10-09T11:00:31.038Z,23.96
2023-10-09T11:03:14.707Z,24.15
2023-10-09T11:05:52.030Z,24.07
2023-10-09T11:08:25.317Z,23.43
2023-10-09T11:10:52.477Z,24.33
2023-10-09T11:13:34.699Z,24.28
2023-10-09T11:16:16.648Z,24.84
2023-10-09T11:18:52.862Z,25.02
2023-10-09T11:21:19.977Z,24.87
2023-10-09T11:24:08.137Z,24.51
2023-10-09T11:26:41.964Z,24.54
2023-10-09T11:29:19.759Z,24.58
2023-10-09T11:32:07.163Z,23.43
2023-10-09T11:34:37.295Z,23.27
2023-10-09T11:37:13.436Z,23.31
2023-10-09T11:39:58.917Z,23.50
2023-10-09T11:42:48.256Z,23.14
2023-10-09T11:45:26.458Z,23.37
2023-10-09T11:48:00.750Z,23.32
2023-10-09T11:50:51.079Z,23.23
2023-10-09T11:53:24.415Z,23.84
2023-10-09T11:55:54.557Z,23.92
2023-10-09T11:58:25.866Z,23.46
2023-10-09T12:14:58.809Z,24.46
2023-10-09T12:17:27.649Z,24.44
2023-10-09T12:19:57.677Z,24.43
2023-10-09T12:22:28.663Z,24.41
2023-10-09T12:24:55.726Z,24.20
2023-10-09T12:27:23.355Z,24.33
2023-10-09T12:29:51.045Z,24.40
2023-10-09T12:32:21.000Z,23.95
2023-10-09T12:34:52.140Z,24.03
2023-10-09T12:37:22.255Z,24.54
2023-10-09T12:39:49.611Z,24.23
2023-10-09T12:42:18.410Z,23.97
2023-10-09T12:44:45.880Z,24.35
2023-10-09T12:47:13.123Z,24.53
2023-10-09T12:49:42.484Z,24.47
2023-10-09T12:52:17.909Z,24.67
2023-10-09T12:54:48.031Z,24.66
2023-10-09T12:57:15.192Z,24.24
2023-10-09T12:59:50.041Z,24.17
2023-10-09T13:05:01.378Z,24.08
2023-10-09T13:07:28.707Z,24.05
2023-10-09T13:10:11.104Z,23.94
2023-10-09T13:12:43.044Z,24.26
2023-10-09T13:15:10.956Z,24.27
2023-10-09T13:17:42.710Z,24.18
2023-10-09T13:20:17.649Z,24.24
2023-10-09T13:22:45.858Z,24.24
2023-10-09T13:25:31.239Z,24.08
2023-10-09T13:28:05.315Z,24.47
2023-10-09T13:30:41.477Z,24.26
2023-10-09T13:33:09.080Z,24.41
2023-10-09T13:35:49.674Z,24.35
2023-10-09T13:38:18.005Z,24.31
2023-10-09T13:40:45.138Z,24.24
2023-10-09T13:43:18.416Z,24.26
2023-10-09T13:45:51.553Z,24.01
2023-10-09T13:48:19.493Z,24.09
2023-10-09T13:50:46.421Z,24.14
2023-10-09T13:53:16.037Z,24.17
2023-10-09T13:55:45.341Z,24.24
2023-10-09T13:58:18.761Z,24.40
2023-10-09T14:00:47.813Z,24.57
2023-10-09T14:03:15.244Z,24.40
2023-10-09T14:05:58.587Z,24.48
2023-10-09T14:08:27.524Z,24.22
2023-10-09T14:10:56.164Z,24.08
2023-10-09T14:13:30.536Z,23.89
2023-10-09T14:16:01.515Z,23.92
2023-10-09T14:18:31.694Z,23.85
2023-10-09T14:21:06.466Z,23.74
2023-10-09T14:23:36.616Z,23.37
2023-10-09T14:26:03.696Z,23.35
2023-10-09T14:28:30.730Z,23.26
2023-10-09T14:31:00.811Z,23.34
2023-10-09T14:33:29.195Z,23.48
2023-10-09T14:35:56.564Z,23.31
2023-10-09T14:38:28.881Z,23.34
2023-10-09T14:41:02.353Z,23.16
2023-10-09T14:43:30.147Z,23.01
2023-10-09T14:45:57.283Z,23.08
2023-10-09T14:48:27.578Z,22.92
2023-10-09T14:50:55.099Z,22.84
2023-10-09T14:53:23.430Z,22.84
2023-10-09T14:55:57.676Z,22.61
2023-10-09T14:58:27.031Z,22.51
2023-10-09T15:00:55.456Z,22.18
2023-10-09T15:03:23.765Z,22.20
2023-10-09T15:05:51.300Z,22.07
2023-10-09T15:08:19.240Z,22.11
2023-10-09T15:10:50.507Z,22.14
2023-10-09T15:13:17.808Z,22.14
2023-10-09T15:15:46.987Z,22.09
2023-10-09T15:18:14.540Z,22.00
2023-10-09T15:20:56.517Z,22.00
2023-10-09T15:23:24.066Z,21.91
2023-10-09T15:25:57.064Z,21.86
2023-10-09T15:28:24.658Z,21.96
2023-10-09T15:30:52.219Z,21.96
2023-10-09T15:33:20.080Z,21.91
2023-10-09T15:35:53.356Z,21.78
2023-10-09T15:38:21.135Z,21.73
2023-10-09T15:40:49.206Z,21.63
2023-10-09T15:43:18.433Z,21.57
2023-10-09T15:45:49.412Z,21.52
2023-10-09T15:48:17.039Z,21.29
2023-10-09T15:50:52.259Z,21.37
2023-10-09T15:53:20.706Z,21.29
2023-10-09T15:55:48.091Z,21.07
2023-10-09T15:58:16.420Z,21.07
2023-10-09T16:00:47.897Z,20.97
2023-10-09T16:03:43.151Z,20.95
2023-10-09T16:06:22.282Z,20.82
2023-10-09T16:08:53.429Z,20.65
2023-10-09T16:11:25.301Z,20.57
2023-10-09T16:13:55.141Z,20.27
2023-10-09T16:16:33.004Z,20.25
2023-10-09T16:19:00.136Z,20.18
2023-10-09T16:21:28.004Z,20.08
2023-10-09T16:24:00.488Z,19.94
2023-10-09T16:26:28.272Z,20.07
2023-10-09T16:28:55.840Z,20.09
2023-10-09T16:31:41.762Z,20.07
2023-10-09T16:34:09.925Z,20.07
2023-10-09T16:36:37.894Z,19.97
2023-10-09T16:39:05.287Z,19.80
2023-10-09T16:41:41.379Z,19.69
2023-10-09T16:44:11.480Z,19.73
2023-10-09T16:46:41.289Z,19.77
2023-10-09T16:49:09.851Z,19.84
2023-10-09T16:51:36.902Z,19.81
2023-10-09T16:54:07.015Z,19.92
2023-10-09T16:56:34.924Z,20.06
2023-10-09T16:59:02.223Z,20.00
2023-10-09T17:01:29.510Z,19.64
2023-10-09T17:03:59.605Z,19.31
2023-10-09T17:06:30.445Z,19.11
2023-10-09T17:08:58.422Z,18.93
2023-10-09T17:11:26.014Z,18.81
2023-10-09T17:13:56.129Z,18.79
2023-10-09T17:16:25.941Z,18.73
2023-10-09T17:18:56.995Z,18.86
2023-10-09T17:21:25.342Z,18.84
2023-10-09T17:23:56.938Z,18.80
2023-10-09T17:26:24.750Z,18.78
2023-10-09T17:28:56.086Z,18.65
2023-10-09T17:31:28.007Z,18.66
2023-10-09T17:33:58.570Z,18.71
2023-10-09T17:36:27.714Z,18.65
2023-10-09T17:38:55.206Z,18.58
2023-10-09T17:41:23.172Z,18.53
2023-10-09T17:43:53.716Z,18.53
2023-10-09T17:46:20.722Z,18.43
2023-10-09T17:48:47.859Z,18.28
2023-10-09T17:51:16.614Z,18.50
2023-10-09T17:53:44.456Z,18.51
2023-10-09T17:56:11.748Z,18.51
2023-10-09T17:58:39.406Z,18.54
2023-10-09T18:01:07.805Z,18.44
2023-10-09T18:03:35.503Z,18.39
2023-10-09T18:06:05.215Z,18.31
2023-10-09T18:08:32.122Z,18.30
2023-10-09T18:11:01.541Z,18.23
2023-10-09T18:13:28.750Z,18.14
2023-10-09T18:16:09.728Z,18.14
2023-10-09T18:18:44.932Z,18.01
2023-10-09T18:21:11.927Z,18.11
2023-10-09T18:23:46.065Z,17.99
2023-10-09T18:26:18.162Z,18.08
2023-10-09T18:28:46.703Z,18.22
2023-10-09T18:31:15.087Z,18.26
2023-10-09T18:33:44.972Z,18.25
2023-10-09T18:36:12.750Z,18.24
2023-10-09T18:38:40.334Z,18.23
2023-10-09T18:41:08.670Z,18.31
2023-10-09T18:43:36.442Z,18.39
2023-10-09T18:46:12.021Z,18.41
2023-10-09T18:48:39.286Z,18.11
2023-10-09T18:51:08.900Z,18.11
2023-10-09T18:53:35.983Z,18.09
2023-10-09T18:56:03.373Z,18.19
2023-10-09T18:58:30.466Z,18.30
2023-10-09T19:01:03.460Z,18.36
2023-10-09T19:03:31.284Z,18.30
2023-10-09T19:05:58.403Z,18.24
2023-10-09T19:08:25.450Z,18.30
2023-10-09T19:11:02.711Z,18.38
2023-10-09T19:13:31.333Z,18.29
2023-10-09T19:15:58.432Z,18.29
2023-10-09T19:18:26.341Z,18.32
2023-10-09T19:20:54.512Z,18.27
2023-10-09T19:23:21.774Z,18.13
2023-10-09T19:25:48.946Z,17.58
2023-10-09T19:28:16.519Z,17.76
2023-10-09T19:30:45.557Z,17.37
2023-10-09T19:33:13.366Z,17.41
2023-10-09T19:35:42.146Z,17.48
2023-10-09T19:38:09.563Z,17.59
2023-10-09T19:40:36.937Z,17.63
2023-10-09T19:43:06.491Z,17.72
2023-10-09T19:45:33.768Z,17.84
2023-10-09T19:48:03.647Z,17.69
2023-10-09T19:50:30.570Z,17.81
2023-10-09T19:52:57.578Z,17.67
2023-10-09T19:55:24.700Z,17.77
2023-10-09T19:57:52.821Z,17.77
2023-10-09T20:04:33.354Z,17.85
2023-10-09T20:07:03.403Z,17.90
2023-10-09T20:09:30.526Z,17.96
2023-10-09T20:11:57.682Z,18.00
2023-10-09T20:14:24.929Z,17.97
2023-10-09T20:16:52.083Z,17.98
2023-10-09T20:19:20.834Z,18.04
2023-10-09T20:21:48.872Z,18.06
2023-10-09T20:24:15.806Z,18.02
2023-10-09T20:26:45.022Z,18.09
2023-10-09T20:29:16.255Z,18.08
2023-10-09T20:31:49.005Z,18.12
2023-10-09T20:34:20.881Z,18.14
2023-10-09T20:36:49.929Z,18.21
2023-10-09T20:39:22.952Z,18.17
2023-10-09T20:41:52.185Z,18.07
2023-10-09T20:44:21.055Z,18.18
2023-10-09T20:46:56.267Z,18.08
2023-10-09T20:49:25.143Z,18.10
2023-10-09T20:51:57.508Z,18.07
2023-10-09T20:54:27.719Z,18.03
2023-10-09T20:56:56.470Z,17.97
2023-10-09T20:59:25.159Z,17.99
2023-10-09T21:04:53.869Z,17.91
2023-10-09T21:07:21.040Z,17.88
2023-10-09T21:09:49.500Z,17.91
2023-10-09T21:12:19.852Z,17.81
2023-10-09T21:14:47.186Z,17.86
2023-10-09T21:17:17.273Z,17.88
2023-10-09T21:19:44.881Z,17.89
2023-10-09T21:22:11.842Z,17.96
2023-10-09T21:24:39.181Z,17.93
2023-10-09T21:27:06.225Z,17.92
2023-10-09T21:29:33.864Z,17.86
2023-10-09T21:32:00.955Z,17.89
2023-10-09T21:34:28.508Z,17.93
2023-10-09T21:36:56.087Z,17.94
2023-10-09T21:39:23.134Z,18.01
2023-10-09T21:41:50.199Z,18.04
2023-10-09T21:44:17.190Z,18.00
2023-10-09T21:46:44.112Z,18.00
2023-10-09T21:49:11.924Z,18.00
2023-10-09T21:51:39.163Z,17.88
2023-10-09T21:54:06.494Z,17.96
2023-10-09T21:56:33.901Z,17.94
2023-10-09T21:59:01.012Z,17.79
2023-10-09T22:01:29.352Z,17.80
2023-10-09T22:03:56.555Z,17.78
2023-10-09T22:06:27.697Z,17.71
2023-10-09T22:08:54.942Z,17.82
2023-10-09T22:11:22.289Z,17.91
2023-10-09T22:13:49.398Z,17.95
2023-10-09T22:16:16.626Z,18.00
2023-10-09T22:18:49.861Z,18.02
2023-10-09T22:21:17.440Z,17.96
2023-10-09T22:23:48.186Z,17.97
2023-10-09T22:26:21.767Z,18.03
2023-10-09T22:28:49.509Z,17.95
2023-10-09T22:31:17.655Z,17.88
2023-10-09T22:33:51.008Z,17.89
2023-10-09T22:36:46.929Z,17.96
2023-10-09T22:39:26.469Z,17.97
2023-10-09T22:41:56.042Z,18.06
2023-10-09T22:44:23.635Z,18.09
2023-10-09T22:46:53.417Z,18.12
2023-10-09T22:49:20.829Z,18.08
2023-10-09T22:51:54.180Z,18.06
2023-10-09T22:54:36.946Z,18.14
2023-10-09T22:57:07.274Z,18.10
2023-10-09T22:59:45.471Z,18.14
2023-10-09T23:02:24.131Z,18.17
2023-10-09T23:05:06.102Z,18.12
2023-10-09T23:07:34.075Z,18.18
2023-10-09T23:10:16.718Z,18.27
2023-10-09T23:12:50.183Z,18.29
2023-10-09T23:15:34.542Z,18.30
2023-10-09T23:18:11.787Z,18.28
2023-10-09T23:20:50.040Z,18.30
2023-10-09T23:23:26.401Z,18.29
2023-10-09T23:26:07.193Z,18.24
2023-10-09T23:28:41.409Z,18.27
2023-10-09T23:31:23.803Z,18.28
2023-10-09T23:33:58.452Z,18.32
2023-10-09T23:36:30.602Z,18.23
2023-10-09T23:39:16.668Z,18.32
2023-10-09T23:42:00.220Z,18.27
2023-10-09T23:44:36.036Z,18.23
2023-10-09T23:47:10.770Z,18.16
2023-10-09T23:49:40.229Z,17.99
2023-10-09T23:52:09.041Z,18.08
2023-10-09T23:54:38.069Z,18.03
2023-10-09T23:57:05.559Z,18.07
2023-10-09T23:59:41.523Z,18.02
